Time;durP1;ratioP1;P1;durP2;ratioP2;P2;SDS_P1;SDS_P2;PMS_P1;PMS_P2;Temp;Humidity;BMP_temperature;BMP_pressure;BME280_temperature;BME280_humidity;BME280_pressure;Samples;Min_cycle;Max_cycle;Signal;HPM_P1;HPM_P2
2023/10/18 00:00:58;;;;;;;10.55;7.00;;;5.90;66.70;;;;;;5089628;28;20471;-61
2023/10/18 00:03:26;;;;;;;9.75;6.95;;;5.90;66.60;;;;;;5091075;28;20158;-60
2023/10/18 00:05:52;;;;;;;10.55;7.13;;;5.90;66.60;;;;;;5092858;28;20024;-60
2023/10/18 00:08:17;;;;;;;12.20;7.57;;;5.90;66.50;;;;;;5093168;28;20042;-59
2023/10/18 00:10:46;;;;;;;11.40;6.93;;;5.90;66.60;;;;;;5087653;28;20448;-60
2023/10/18 00:13:12;;;;;;;13.23;6.95;;;5.80;66.70;;;;;;5085402;28;20066;-60
2023/10/18 00:15:38;;;;;;;12.30;7.47;;;5.80;66.70;;;;;;5089647;28;20051;-61
2023/10/18 00:18:04;;;;;;;9.27;6.63;;;5.80;66.70;;;;;;5085255;28;20054;-60
2023/10/18 00:20:30;;;;;;;9.90;6.60;;;5.80;66.70;;;;;;5091966;28;20028;-59
2023/10/18 00:22:57;;;;;;;15.63;7.63;;;5.80;66.70;;;;;;5087966;28;20092;-60
2023/10/18 00:25:23;;;;;;;11.27;7.22;;;5.80;66.80;;;;;;5089728;28;20047;-60
2023/10/18 00:27:49;;;;;;;12.57;6.90;;;5.70;66.90;;;;;;5086505;28;20016;-60
2023/10/18 00:30:18;;;;;;;10.50;6.65;;;5.70;66.60;;;;;;5073219;28;20081;-60
2023/10/18 00:32:46;;;;;;;11.25;6.40;;;5.70;66.70;;;;;;5091731;28;20066;-61
2023/10/18 00:35:16;;;;;;;12.00;7.03;;;5.70;66.70;;;;;;5092185;28;20016;-61
2023/10/18 00:37:43;;;;;;;14.00;7.50;;;5.70;66.80;;;;;;5093382;28;20504;-60
2023/10/18 00:42:53;;;;;;;;;;;5.70;66.80;;;;;;5091671;28;20524;-60
2023/10/18 00:45:29;;;;;;;10.23;6.53;;;5.70;67.10;;;;;;5065752;28;19912;-57
2023/10/18 00:47:56;;;;;;;10.75;6.32;;;5.70;66.40;;;;;;5085180;28;20024;-60
2023/10/18 00:50:27;;;;;;;8.77;6.22;;;5.60;66.30;;;;;;5088498;28;20016;-61
2023/10/18 00:52:53;;;;;;;9.88;6.65;;;5.60;66.30;;;;;;5083870;28;20039;-61
2023/10/18 00:55:19;;;;;;;9.65;6.30;;;5.60;66.40;;;;;;5089110;28;20035;-61
2023/10/18 00:57:47;;;;;;;13.65;6.88;;;5.60;66.40;;;;;;5087444;28;20020;-59
2023/10/18 01:00:19;;;;;;;13.35;6.78;;;5.60;66.40;;;;;;5083097;28;20048;-61
2023/10/18 01:02:48;;;;;;;9.07;6.40;;;5.50;66.50;;;;;;5085502;28;20038;-59
2023/10/18 01:05:14;;;;;;;9.60;6.50;;;5.50;66.60;;;;;;5088703;28;20024;-61
2023/10/18 01:07:42;;;;;;;9.52;6.38;;;5.50;66.60;;;;;;5095084;28;20051;-61
2023/10/18 01:10:09;;;;;;;8.95;5.88;;;5.50;66.60;;;;;;5089495;28;20024;-61
2023/10/18 01:12:35;;;;;;;9.25;6.30;;;5.50;66.60;;;;;;5083429;28;20028;-61
2023/10/18 01:15:06;;;;;;;9.32;6.45;;;5.50;66.60;;;;;;5087353;28;20040;-61
2023/10/18 01:17:34;;;;;;;9.07;6.13;;;5.40;66.60;;;;;;5086115;28;20123;-60
2023/10/18 01:20:12;;;;;;;9.45;6.72;;;5.40;66.60;;;;;;5086005;28;20043;-59
2023/10/18 01:22:38;;;;;;;8.93;6.50;;;5.40;66.80;;;;;;5084192;28;20501;-61
2023/10/18 01:25:04;;;;;;;7.85;6.20;;;5.40;66.80;;;;;;5090430;28;20071;-60
2023/10/18 01:27:30;;;;;;;9.20;6.28;;;5.40;66.90;;;;;;5088378;28;20028;-59
2023/10/18 01:29:56;;;;;;;13.73;6.95;;;5.30;66.80;;;;;;5069181;28;20043;-60
2023/10/18 01:32:38;;;;;;;11.27;7.28;;;5.30;66.80;;;;;;5087843;28;20044;-62
2023/10/18 01:35:05;;;;;;;12.70;6.90;;;5.40;67.10;;;;;;5088779;28;20484;-60
2023/10/18 01:37:31;;;;;;;10.35;6.43;;;5.30;66.80;;;;;;5086191;28;20031;-59
2023/10/18 01:40:12;;;;;;;13.82;7.25;;;5.30;66.70;;;;;;5090303;28;20386;-61
2023/10/18 01:42:38;;;;;;;13.23;7.35;;;5.30;66.70;;;;;;5082538;28;20042;-59
2023/10/18 01:45:07;;;;;;;10.32;6.47;;;5.30;66.70;;;;;;5089540;28;20051;-60
2023/10/18 01:47:35;;;;;;;10.60;6.70;;;5.30;66.70;;;;;;5079609;28;20379;-59
2023/10/18 01:50:01;;;;;;;9.38;6.82;;;5.30;66.70;;;;;;5066019;28;20088;-61
2023/10/18 01:52:29;;;;;;;12.02;7.18;;;5.30;66.70;;;;;;5087327;28;20722;-60
2023/10/18 01:54:54;;;;;;;10.55;6.72;;;5.30;66.70;;;;;;5090132;28;20035;-60
2023/10/18 01:57:20;;;;;;;12.60;6.80;;;5.30;66.60;;;;;;5087255;28;20016;-60
2023/10/18 01:59:49;;;;;;;9.93;6.93;;;5.20;66.50;;;;;;5087559;28;20111;-59
2023/10/18 02:02:16;;;;;;;11.50;6.72;;;5.20;66.60;;;;;;5089444;28;20442;-60
2023/10/18 02:04:44;;;;;;;11.40;7.13;;;5.20;66.60;;;;;;5088634;28;20355;-59
2023/10/18 02:07:10;;;;;;;10.93;6.75;;;5.20;66.60;;;;;;5083356;28;20028;-59
2023/10/18 02:09:49;;;;;;;10.05;6.80;;;5.20;66.70;;;;;;5072396;28;20034;-61
2023/10/18 02:12:27;;;;;;;11.00;7.10;;;5.20;66.70;;;;;;5087850;28;20035;-61
2023/10/18 02:14:55;;;;;;;13.23;6.93;;;5.20;66.70;;;;;;5086536;28;20020;-61
2023/10/18 02:17:21;;;;;;;12.20;6.97;;;5.10;66.70;;;;;;5089437;28;20020;-60
2023/10/18 02:19:51;;;;;;;12.27;7.20;;;5.10;66.80;;;;;;5091970;28;20050;-61
2023/10/18 02:22:18;;;;;;;10.70;6.88;;;5.10;67.00;;;;;;5079359;28;20028;-59
2023/10/18 02:24:44;;;;;;;9.90;6.65;;;5.10;67.10;;;;;;5097241;28;20046;-61
2023/10/18 02:27:15;;;;;;;11.52;7.15;;;5.10;67.00;;;;;;5091193;28;20108;-59
2023/10/18 02:29:44;;;;;;;12.77;6.93;;;5.10;67.10;;;;;;5087700;28;20035;-59
2023/10/18 02:34:54;;;;;;;8.50;5.70;;;5.00;66.90;;;;;;5090748;28;20085;-61
2023/10/18 02:37:19;;;;;;;9.85;6.53;;;5.00;66.90;;;;;;5068636;28;20130;-61
2023/10/18 02:39:46;;;;;;;10.68;6.55;;;5.00;66.90;;;;;;5086719;28;20090;-60
2023/10/18 02:42:13;;;;;;;12.10;6.85;;;5.00;67.10;;;;;;5085067;28;20107;-59
2023/10/18 02:44:44;;;;;;;9.98;6.78;;;5.00;67.20;;;;;;5089792;28;20415;-60
2023/10/18 02:47:16;;;;;;;9.25;6.00;;;5.00;67.30;;;;;;5032317;28;20029;-60
2023/10/18 02:49:45;;;;;;;16.13;7.05;;;4.90;67.10;;;;;;5080301;28;20064;-60
2023/10/18 02:52:15;;;;;;;10.90;6.78;;;4.90;67.20;;;;;;5087826;28;20032;-61
2023/10/18 02:54:41;;;;;;;11.80;6.80;;;4.90;67.20;;;;;;5093038;28;20036;-61
2023/10/18 02:57:07;;;;;;;14.00;7.05;;;4.90;67.10;;;;;;5065056;28;20036;-60
2023/10/18 02:59:32;;;;;;;9.52;6.88;;;4.90;67.20;;;;;;5089984;28;20058;-60
2023/10/18 03:02:01;;;;;;;11.23;7.15;;;4.90;67.30;;;;;;5086260;28;20806;-60
2023/10/18 03:04:28;;;;;;;13.13;7.63;;;4.90;67.20;;;;;;5091436;28;20050;-61
2023/10/18 03:06:57;;;;;;;10.25;6.63;;;4.90;67.20;;;;;;5088811;28;20035;-60
2023/10/18 03:09:40;;;;;;;14.52;7.20;;;4.90;67.20;;;;;;5088686;28;20024;-60
2023/10/18 03:12:13;;;;;;;9.45;6.90;;;4.90;67.30;;;;;;5080244;28;20036;-60
2023/10/18 03:14:41;;;;;;;9.98;6.75;;;4.90;67.30;;;;;;5086588;28;20092;-59
2023/10/18 03:19:50;;;;;;;10.02;7.25;;;4.90;67.30;;;;;;5089867;28;20070;-61
2023/10/18 03:22:23;;;;;;;10.15;7.47;;;4.80;67.10;;;;;;5087943;28;20024;-61
2023/10/18 03:24:59;;;;;;;9.25;7.05;;;4.80;67.10;;;;;;5086748;28;20052;-60
2023/10/18 03:27:29;;;;;;;12.50;7.28;;;4.80;67.10;;;;;;5085701;28;20028;-61
2023/10/18 03:29:58;;;;;;;10.63;7.38;;;4.80;67.30;;;;;;5085257;28;20030;-60
2023/10/18 03:32:25;;;;;;;11.75;6.75;;;4.80;67.30;;;;;;5085169;28;20040;-59
2023/10/18 03:34:53;;;;;;;15.15;7.30;;;4.80;67.30;;;;;;5093008;28;20024;-59
2023/10/18 03:37:24;;;;;;;11.95;7.07;;;4.80;68.10;;;;;;5089947;28;20024;-60
2023/10/18 03:39:53;;;;;;;12.82;7.28;;;4.80;67.50;;;;;;5072392;28;20021;-61
2023/10/18 03:42:31;;;;;;;11.45;7.85;;;4.70;67.40;;;;;;5086884;28;20453;-61
2023/10/18 03:45:00;;;;;;;15.95;7.38;;;4.80;67.50;;;;;;5088529;28;20027;-59
2023/10/18 03:47:28;;;;;;;10.07;6.70;;;4.80;67.50;;;;;;5069973;28;20363;-61
2023/10/18 03:49:55;;;;;;;11.43;6.93;;;4.80;67.50;;;;;;5093585;28;20028;-61
2023/10/18 03:52:21;;;;;;;9.90;6.93;;;4.80;67.40;;;;;;5087501;28;20027;-60
2023/10/18 03:57:28;;;;;;;10.95;7.25;;;4.80;67.60;;;;;;5086847;28;20350;-60
2023/10/18 04:00:21;;;;;;;9.15;6.25;;;4.70;67.40;;;;;;5093564;28;20036;-60
2023/10/18 04:02:46;;;;;;;11.82;7.22;;;4.80;67.60;;;;;;5090727;28;20027;-59
2023/10/18 04:05:22;;;;;;;11.48;7.45;;;4.80;67.50;;;;;;5088004;28;20035;-60
2023/10/18 04:07:48;;;;;;;9.68;7.32;;;4.80;67.50;;;;;;5088193;28;20115;-60
2023/10/18 04:10:17;;;;;;;12.75;8.40;;;4.70;67.60;;;;;;5088178;28;20106;-59
2023/10/18 04:12:44;;;;;;;13.65;7.70;;;4.80;67.70;;;;;;5085209;28;20029;-60
2023/10/18 04:15:23;;;;;;;14.07;7.40;;;4.80;67.70;;;;;;5086385;28;20032;-61
2023/10/18 04:18:11;;;;;;;13.18;7.32;;;4.80;67.80;;;;;;5085365;28;21023;-59
2023/10/18 04:20:36;;;;;;;10.52;6.95;;;4.80;67.80;;;;;;5082700;28;20047;-60
2023/10/18 04:23:12;;;;;;;12.88;6.93;;;4.80;67.80;;;;;;5092966;28;20024;-61
2023/10/18 04:25:38;;;;;;;13.48;7.10;;;4.80;67.90;;;;;;5088200;28;20051;-61
2023/10/18 04:28:04;;;;;;;11.68;7.60;;;4.80;67.90;;;;;;5067984;28;20032;-61
2023/10/18 04:30:31;;;;;;;13.40;7.32;;;4.80;67.90;;;;;;5082115;28;20055;-61
2023/10/18 04:33:00;;;;;;;10.10;6.47;;;4.80;67.90;;;;;;5091299;28;20123;-61
2023/10/18 04:35:26;;;;;;;10.60;6.63;;;4.80;67.90;;;;;;5095305;28;20073;-60
2023/10/18 04:37:58;;;;;;;15.20;9.05;;;4.80;67.80;;;;;;5068834;28;20085;-60
2023/10/18 04:40:27;;;;;;;10.90;7.07;;;4.80;67.90;;;;;;5090848;28;20107;-61
2023/10/18 04:42:56;;;;;;;10.75;7.25;;;4.80;67.90;;;;;;5088990;28;20519;-61
2023/10/18 04:45:23;;;;;;;16.17;7.72;;;4.80;67.90;;;;;;5092848;28;20486;-60
2023/10/18 04:48:06;;;;;;;11.10;7.60;;;4.80;67.90;;;;;;4999177;28;20035;-59
2023/10/18 04:50:38;;;;;;;19.17;8.55;;;4.80;67.90;;;;;;5093724;28;20035;-60
2023/10/18 04:53:12;;;;;;;11.48;7.55;;;4.80;67.80;;;;;;5088006;28;20037;-58
2023/10/18 04:55:41;;;;;;;12.00;7.60;;;4.80;67.80;;;;;;5087027;28;20024;-59
2023/10/18 04:58:07;;;;;;;11.60;7.90;;;4.80;68.00;;;;;;5087532;28;20088;-59
2023/10/18 05:00:39;;;;;;;12.73;8.35;;;4.80;68.00;;;;;;5086364;28;20032;-60
2023/10/18 05:03:13;;;;;;;11.50;7.80;;;4.80;68.10;;;;;;5091631;28;20024;-59
2023/10/18 05:05:44;;;;;;;15.85;9.18;;;4.80;68.10;;;;;;5086839;28;21004;-60
2023/10/18 05:08:14;;;;;;;16.02;9.32;;;4.80;67.90;;;;;;5086464;28;20470;-59
2023/10/18 05:10:44;;;;;;;17.95;9.07;;;4.80;68.10;;;;;;5088433;28;20024;-59
2023/10/18 05:13:22;;;;;;;15.60;8.98;;;4.80;68.10;;;;;;5078890;28;20039;-60
2023/10/18 05:15:51;;;;;;;15.32;8.65;;;4.80;68.10;;;;;;5091013;28;20028;-59
2023/10/18 05:18:17;;;;;;;17.52;8.70;;;4.80;68.10;;;;;;5081945;28;20439;-61
2023/10/18 05:23:19;;;;;;;14.88;8.15;;;4.80;68.10;;;;;;5087439;28;20120;-60
2023/10/18 05:25:46;;;;;;;20.20;12.95;;;4.80;68.20;;;;;;5088821;28;20040;-59
2023/10/18 05:34:01;;;;;;;14.60;9.65;;;4.70;68.10;;;;;;5090506;28;20537;-60
2023/10/18 05:44:01;;;;;;;21.17;12.02;;;4.70;67.90;;;;;;5087653;28;20028;-60
2023/10/18 05:46:27;;;;;;;18.17;12.10;;;4.70;67.80;;;;;;5000405;28;20077;-60
2023/10/18 05:48:55;;;;;;;20.05;11.65;;;4.70;68.30;;;;;;5088805;28;20038;-59
2023/10/18 05:53:51;;;;;;;20.88;11.40;;;4.60;68.70;;;;;;5089451;28;20039;-59
2023/10/18 05:56:21;;;;;;;17.13;11.27;;;4.70;68.80;;;;;;5082239;28;20029;-59
2023/10/18 05:58:56;;;;;;;18.75;10.25;;;4.70;69.00;;;;;;5087720;28;20020;-60
2023/10/18 06:01:21;;;;;;;16.38;10.15;;;4.70;69.00;;;;;;5088396;28;20027;-60
2023/10/18 06:03:47;;;;;;;15.73;9.90;;;4.70;69.00;;;;;;5070798;28;20699;-61
2023/10/18 06:06:13;;;;;;;16.83;10.48;;;4.80;69.10;;;;;;5072442;28;20035;-60
2023/10/18 06:08:38;;;;;;;15.88;10.85;;;4.80;69.20;;;;;;5088026;28;20028;-61
2023/10/18 06:11:06;;;;;;;20.10;11.15;;;4.80;69.20;;;;;;5086855;28;20024;-60
2023/10/18 06:13:35;;;;;;;19.90;11.13;;;4.80;69.30;;;;;;5089302;28;20390;-60
2023/10/18 06:16:18;;;;;;;23.02;10.80;;;4.90;69.40;;;;;;5080666;28;20024;-60
2023/10/18 06:18:45;;;;;;;17.17;10.32;;;4.90;69.70;;;;;;5086652;28;20027;-59
2023/10/18 06:21:18;;;;;;;18.55;9.82;;;4.90;69.60;;;;;;5091809;28;20028;-59
2023/10/18 06:23:55;;;;;;;16.23;10.95;;;5.00;69.70;;;;;;5086525;28;20060;-59
2023/10/18 06:26:28;;;;;;;19.23;11.13;;;5.10;69.80;;;;;;5083008;28;20047;-60
2023/10/18 06:29:00;;;;;;;17.40;10.50;;;5.10;69.80;;;;;;5086189;28;20032;-60
2023/10/18 06:31:29;;;;;;;16.85;10.02;;;5.20;69.80;;;;;;5083766;28;20470;-60
2023/10/18 06:33:58;;;;;;;18.25;10.73;;;5.30;69.90;;;;;;5093183;28;20043;-60
2023/10/18 06:36:32;;;;;;;22.63;13.10;;;5.30;70.00;;;;;;5105125;27;20027;-59
2023/10/18 06:38:58;;;;;;;25.50;11.70;;;5.40;70.10;;;;;;5089953;28;20474;-60
2023/10/18 06:41:29;;;;;;;21.83;13.38;;;5.50;69.90;;;;;;5081507;28;20032;-60
2023/10/18 06:43:58;;;;;;;23.45;12.82;;;5.60;70.20;;;;;;5090646;28;20039;-61
2023/10/18 06:46:27;;;;;;;24.83;13.48;;;5.60;70.30;;;;;;5089101;28;20055;-59
2023/10/18 06:48:55;;;;;;;23.88;13.70;;;5.70;70.70;;;;;;5086164;28;20024;-60
2023/10/18 06:51:30;;;;;;;22.35;13.82;;;5.70;70.80;;;;;;5088045;28;20035;-61
2023/10/18 06:54:05;;;;;;;24.42;13.57;;;5.80;70.70;;;;;;5091623;28;20123;-61
2023/10/18 06:56:39;;;;;;;19.67;12.65;;;5.90;71.50;;;;;;5088268;28;20462;-60
2023/10/18 06:59:07;;;;;;;22.25;12.90;;;6.00;71.10;;;;;;5082439;28;20032;-60
2023/10/18 07:01:34;;;;;;;20.65;13.07;;;6.10;71.20;;;;;;5088231;28;20111;-61
2023/10/18 07:04:04;;;;;;;24.35;13.57;;;6.20;71.20;;;;;;5092660;28;20461;-61
2023/10/18 07:06:29;;;;;;;27.40;13.90;;;6.30;71.10;;;;;;5089648;28;20027;-62
2023/10/18 07:08:56;;;;;;;28.23;14.40;;;6.30;70.80;;;;;;5084254;28;20031;-62
2023/10/18 07:11:23;;;;;;;25.38;14.05;;;6.40;70.70;;;;;;5089181;28;20388;-60
2023/10/18 07:13:54;;;;;;;33.83;15.07;;;6.50;70.60;;;;;;5087518;28;20071;-61
2023/10/18 07:19:24;;;;;;;24.52;13.73;;;6.60;71.30;;;;;;5091937;28;20420;-61
2023/10/18 07:21:51;;;;;;;21.65;12.38;;;6.70;70.50;;;;;;5085881;28;20403;-61
2023/10/18 07:24:20;;;;;;;26.23;14.60;;;6.80;70.50;;;;;;5091460;28;20127;-61
2023/10/18 07:26:46;;;;;;;24.05;14.10;;;6.80;70.60;;;;;;5085956;28;20034;-61
2023/10/18 07:29:15;;;;;;;30.02;15.27;;;6.90;70.50;;;;;;5089227;28;20099;-61
2023/10/18 07:31:46;;;;;;;22.23;14.05;;;7.00;70.30;;;;;;5084660;28;20107;-61
2023/10/18 07:34:25;;;;;;;26.02;15.10;;;7.10;70.40;;;;;;5087953;28;20040;-62
2023/10/18 07:36:54;;;;;;;23.52;13.48;;;7.20;70.50;;;;;;5087361;28;20044;-60
2023/10/18 07:39:24;;;;;;;21.83;13.02;;;7.30;70.40;;;;;;5093483;28;20485;-60
2023/10/18 07:41:51;;;;;;;22.38;13.05;;;7.30;70.30;;;;;;5090854;28;20527;-60
2023/10/18 07:44:17;;;;;;;26.10;13.68;;;7.40;70.10;;;;;;5089520;28;20035;-60
2023/10/18 07:46:42;;;;;;;28.30;13.40;;;7.50;70.00;;;;;;5036262;28;20024;-61
2023/10/18 07:49:16;;;;;;;19.65;12.70;;;7.50;70.00;;;;;;5092692;28;20095;-60
2023/10/18 07:51:55;;;;;;;23.55;12.75;;;7.60;70.10;;;;;;5089935;28;20116;-61
2023/10/18 07:54:22;;;;;;;21.50;12.75;;;7.70;69.90;;;;;;5091986;28;20051;-60
2023/10/18 07:56:49;;;;;;;19.05;13.40;;;7.80;69.80;;;;;;5091275;28;20436;-60
2023/10/18 07:59:41;;;;;;;18.88;12.50;;;7.80;69.90;;;;;;5089424;28;20043;-60
2023/10/18 08:04:34;;;;;;;17.35;12.23;;;8.00;69.90;;;;;;5085126;28;20035;-60
2023/10/18 08:07:00;;;;;;;20.40;12.48;;;8.00;69.80;;;;;;5088703;28;20490;-61
2023/10/18 08:09:29;;;;;;;24.27;13.73;;;8.10;70.00;;;;;;5070812;28;20023;-61
2023/10/18 08:11:56;;;;;;;25.98;13.95;;;8.20;69.80;;;;;;5087336;28;20037;-61
2023/10/18 08:14:24;;;;;;;23.20;14.10;;;8.30;69.50;;;;;;5087555;28;20036;-61
2023/10/18 08:16:57;;;;;;;20.73;13.10;;;8.30;69.40;;;;;;5093451;27;20471;-61
2023/10/18 08:19:24;;;;;;;25.90;13.45;;;8.40;69.20;;;;;;5083637;28;20039;-61
2023/10/18 08:24:35;;;;;;;24.17;12.98;;;8.50;69.00;;;;;;5087406;28;20497;-61
2023/10/18 08:27:12;;;;;;;19.40;12.88;;;8.60;69.30;;;;;;5087241;28;20024;-62
2023/10/18 08:29:38;;;;;;;21.73;13.43;;;8.60;69.20;;;;;;5090576;28;20020;-60
2023/10/18 08:32:14;;;;;;;21.88;13.48;;;8.70;68.90;;;;;;5088194;28;20032;-61
2023/10/18 08:34:45;;;;;;;23.77;13.18;;;8.70;68.80;;;;;;5083565;28;20123;-60
2023/10/18 08:37:13;;;;;;;22.02;12.82;;;8.70;68.60;;;;;;5091625;28;20020;-60
2023/10/18 08:39:55;;;;;;;22.95;13.15;;;8.80;68.40;;;;;;5088272;28;20031;-60
2023/10/18 08:42:32;;;;;;;22.15;12.80;;;8.80;68.30;;;;;;5083510;28;20020;-61
2023/10/18 08:45:05;;;;;;;25.63;13.80;;;8.80;68.20;;;;;;5058449;28;20470;-58
2023/10/18 08:47:39;;;;;;;21.08;12.38;;;8.80;68.10;;;;;;5085940;28;20024;-60
2023/10/18 08:50:08;;;;;;;24.95;12.85;;;8.80;68.70;;;;;;5090582;28;20358;-61
2023/10/18 08:52:39;;;;;;;19.75;13.50;;;8.80;67.90;;;;;;5079206;28;20475;-61
2023/10/18 08:55:23;;;;;;;18.30;12.63;;;8.70;68.00;;;;;;5090208;28;20129;-61
2023/10/18 08:57:55;;;;;;;15.93;10.52;;;8.70;68.10;;;;;;5088925;28;20040;-61
2023/10/18 09:02:51;;;;;;;15.73;10.68;;;8.70;68.40;;;;;;5093859;28;20043;-61
2023/10/18 09:05:23;;;;;;;17.17;11.77;;;8.80;68.50;;;;;;5091298;28;20020;-61
2023/10/18 09:07:53;;;;;;;18.33;11.68;;;8.80;68.50;;;;;;5084381;28;20044;-62
2023/10/18 09:15:55;;;;;;;16.02;10.55;;;8.90;68.80;;;;;;5091076;28;20031;-61
2023/10/18 09:18:22;;;;;;;18.58;11.07;;;9.00;68.80;;;;;;5090220;28;20393;-61
2023/10/18 09:20:48;;;;;;;16.38;11.07;;;9.00;68.70;;;;;;5081401;28;20028;-61
2023/10/18 09:23:21;;;;;;;19.63;12.60;;;9.10;68.90;;;;;;5084865;28;20036;-60
2023/10/18 09:25:48;;;;;;;15.32;10.80;;;9.20;68.70;;;;;;5087275;28;20051;-61
2023/10/18 09:28:25;;;;;;;16.10;11.02;;;9.20;68.40;;;;;;5088001;28;20039;-62
2023/10/18 09:31:12;;;;;;;21.35;11.27;;;9.30;68.40;;;;;;5086610;28;20042;-61
2023/10/18 09:34:07;;;;;;;14.45;10.07;;;9.30;68.50;;;;;;5089676;28;20114;-61
2023/10/18 09:36:38;;;;;;;16.30;9.38;;;9.40;68.30;;;;;;5087555;28;20038;-62
2023/10/18 09:39:09;;;;;;;19.50;11.23;;;9.40;68.20;;;;;;5086732;28;20064;-61
2023/10/18 09:41:37;;;;;;;22.75;12.82;;;9.50;68.20;;;;;;5091115;28;20127;-61
2023/10/18 09:44:03;;;;;;;25.25;12.85;;;9.50;67.90;;;;;;5086273;28;20039;-60
2023/10/18 09:46:31;;;;;;;28.50;14.82;;;9.60;67.90;;;;;;5080191;28;20056;-61
2023/10/18 09:48:58;;;;;;;26.20;14.68;;;9.60;67.90;;;;;;5087853;28;20035;-61
2023/10/18 09:51:24;;;;;;;21.65;13.38;;;9.70;68.00;;;;;;5086366;28;20115;-61
2023/10/18 09:53:54;;;;;;;18.23;12.23;;;9.70;67.70;;;;;;5088376;28;20035;-61
2023/10/18 09:56:26;;;;;;;21.30;12.32;;;9.70;67.80;;;;;;5083413;28;20585;-61
2023/10/18 09:59:05;;;;;;;18.73;12.20;;;9.70;67.80;;;;;;5087011;28;20032;-60
2023/10/18 10:04:14;;;;;;;19.27;12.43;;;9.90;68.00;;;;;;5082283;28;20028;-61
2023/10/18 10:07:27;;;;;;;16.00;11.93;;;9.90;67.80;;;;;;5090799;28;20020;-61
2023/10/18 10:09:29;;;;;;;16.13;11.30;;;9.90;67.40;;;;;;5086776;28;20583;-61
2023/10/18 10:11:55;;;;;;;16.50;12.95;;;10.00;67.30;;;;;;5089717;28;20039;-61
2023/10/18 10:14:21;;;;;;;16.70;12.02;;;10.00;67.40;;;;;;5092977;28;20047;-62
2023/10/18 10:16:57;;;;;;;21.27;12.50;;;10.10;67.20;;;;;;5086402;28;20403;-61
2023/10/18 10:19:31;;;;;;;20.00;13.00;;;10.10;67.20;;;;;;5088405;28;20072;-60
2023/10/18 10:22:06;;;;;;;15.07;11.50;;;10.10;67.20;;;;;;5083593;28;20024;-60
2023/10/18 10:24:35;;;;;;;16.48;11.60;;;10.20;67.00;;;;;;5080953;28;20448;-61
2023/10/18 10:29:56;;;;;;;19.83;12.43;;;10.20;66.60;;;;;;5083035;28;20050;-61
2023/10/18 10:32:27;;;;;;;19.08;12.68;;;10.20;66.60;;;;;;5089066;28;20035;-62
2023/10/18 10:35:18;;;;;;;23.58;12.40;;;10.20;66.70;;;;;;5088589;28;20071;-62
2023/10/18 10:38:09;;;;;;;19.70;12.57;;;10.20;67.10;;;;;;5085348;28;20024;-61
2023/10/18 10:40:48;;;;;;;20.25;11.90;;;10.30;67.00;;;;;;5084666;28;20074;-61
2023/10/18 10:43:14;;;;;;;21.85;13.43;;;10.30;66.80;;;;;;5085604;28;20119;-61
2023/10/18 10:48:28;;;;;;;41.03;13.57;;;10.40;66.80;;;;;;5088925;28;20043;-61
2023/10/18 10:51:16;;;;;;;17.05;12.52;;;10.40;66.70;;;;;;5067738;28;20059;-61
2023/10/18 10:53:49;;;;;;;21.48;11.82;;;10.40;66.70;;;;;;5085997;28;20028;-61
2023/10/18 10:56:28;;;;;;;15.95;12.43;;;10.50;66.70;;;;;;5081894;28;20020;-63
2023/10/18 10:59:22;;;;;;;17.35;12.38;;;10.50;66.70;;;;;;5080219;28;20339;-62
2023/10/18 11:04:25;;;;;;;17.77;13.27;;;10.60;66.50;;;;;;5084091;28;20122;-61
2023/10/18 11:06:57;;;;;;;19.55;12.85;;;10.60;66.50;;;;;;5091909;28;20039;-61
2023/10/18 11:09:33;;;;;;;17.02;12.25;;;10.70;66.50;;;;;;5088074;28;20425;-61
2023/10/18 11:12:04;;;;;;;20.15;12.93;;;10.80;66.90;;;;;;5092062;28;20050;-62
2023/10/18 11:14:35;;;;;;;18.02;13.27;;;10.90;67.10;;;;;;5090116;28;20075;-62
2023/10/18 11:20:12;;;;;;;19.38;13.90;;;11.20;67.00;;;;;;5082948;28;20400;-61
2023/10/18 11:22:41;;;;;;;17.95;12.65;;;11.40;66.90;;;;;;5090841;28;20173;-61
2023/10/18 11:25:09;;;;;;;19.17;13.00;;;11.60;66.60;;;;;;5086261;28;20429;-61
2023/10/18 11:27:37;;;;;;;19.77;12.57;;;11.80;66.20;;;;;;5097881;28;20464;-62
2023/10/18 11:30:16;;;;;;;18.48;12.25;;;11.90;65.80;;;;;;5089200;28;20028;-60
2023/10/18 11:32:49;;;;;;;18.58;11.00;;;12.00;65.40;;;;;;5088836;28;20020;-62
2023/10/18 11:35:25;;;;;;;15.68;11.27;;;12.10;65.10;;;;;;5090410;28;20516;-62
2023/10/18 11:37:52;;;;;;;14.10;10.15;;;12.20;64.70;;;;;;5088646;28;20039;-62
2023/10/18 11:40:29;;;;;;;15.35;10.07;;;12.30;64.50;;;;;;5070455;28;20973;-62
2023/10/18 11:43:06;;;;;;;14.18;10.88;;;12.40;64.40;;;;;;5081752;28;20039;-62
2023/10/18 11:45:33;;;;;;;16.92;11.32;;;12.50;64.20;;;;;;5081550;28;20063;-61
2023/10/18 11:48:06;;;;;;;13.98;11.82;;;12.50;64.00;;;;;;5004955;28;20024;-61
2023/10/18 11:50:42;;;;;;;14.65;10.80;;;12.60;63.70;;;;;;5090213;28;20488;-62
2023/10/18 11:53:12;;;;;;;14.30;10.50;;;12.60;63.50;;;;;;5090923;28;20036;-62
2023/10/18 11:55:51;;;;;;;15.23;10.75;;;12.70;63.50;;;;;;5067722;28;20039;-63
2023/10/18 11:58:18;;;;;;;14.15;11.52;;;12.70;63.30;;;;;;5082927;28;20039;-61
2023/10/18 12:00:47;;;;;;;15.98;11.48;;;12.70;63.60;;;;;;5091630;28;20111;-62
2023/10/18 12:03:14;;;;;;;16.92;10.57;;;12.80;63.80;;;;;;5085978;28;20031;-62
2023/10/18 12:05:42;;;;;;;16.38;11.35;;;12.90;63.70;;;;;;5092535;28;20498;-62
2023/10/18 12:08:12;;;;;;;13.85;10.45;;;13.00;63.60;;;;;;5087296;28;20036;-61
2023/10/18 12:10:39;;;;;;;16.55;10.60;;;13.10;63.50;;;;;;5085583;28;20573;-61
2023/10/18 12:13:12;;;;;;;14.73;11.18;;;13.20;63.60;;;;;;5095300;28;20042;-62
2023/10/18 12:15:39;;;;;;;15.45;10.60;;;13.30;63.70;;;;;;5088168;28;20035;-62
2023/10/18 12:18:09;;;;;;;12.50;9.70;;;13.50;63.50;;;;;;5092575;28;20087;-62
2023/10/18 12:20:36;;;;;;;12.40;9.90;;;13.60;63.20;;;;;;5093193;28;20024;-62
2023/10/18 12:23:02;;;;;;;14.13;10.40;;;13.70;63.20;;;;;;5088846;28;20035;-62
2023/10/18 12:25:28;;;;;;;12.07;9.57;;;13.90;62.90;;;;;;5086864;28;20044;-62
2023/10/18 12:27:55;;;;;;;14.30;10.43;;;14.10;62.60;;;;;;5105854;27;20028;-62
2023/10/18 12:30:38;;;;;;;14.00;10.27;;;14.20;62.10;;;;;;5086441;28;20031;-61
2023/10/18 12:33:06;;;;;;;15.02;9.98;;;14.30;61.70;;;;;;5086584;28;20039;-61
2023/10/18 12:35:32;;;;;;;12.27;9.70;;;14.50;61.60;;;;;;5091003;28;20042;-60
2023/10/18 12:37:58;;;;;;;16.42;9.93;;;14.50;61.30;;;;;;5103838;27;20044;-62
2023/10/18 12:40:51;;;;;;;12.43;9.75;;;14.60;60.60;;;;;;5092812;28;20039;-62
2023/10/18 12:43:19;;;;;;;13.25;10.38;;;14.70;60.90;;;;;;5088381;28;20081;-62
2023/10/18 12:45:51;;;;;;;11.70;9.38;;;14.80;60.70;;;;;;5002451;28;20055;-62
2023/10/18 12:48:23;;;;;;;14.05;10.35;;;14.90;60.50;;;;;;5092338;28;20692;-62
2023/10/18 12:50:53;;;;;;;13.32;9.57;;;14.90;60.50;;;;;;5092581;28;20474;-62
2023/10/18 12:55:58;;;;;;;12.57;10.07;;;15.20;60.90;;;;;;5085895;28;20101;-61
2023/10/18 12:58:31;;;;;;;14.20;10.18;;;15.40;60.90;;;;;;5085977;28;20370;-62
2023/10/18 13:01:06;;;;;;;10.75;9.02;;;15.60;60.30;;;;;;5089796;28;20024;-61
2023/10/18 13:03:43;;;;;;;11.20;8.85;;;15.80;60.20;;;;;;5090186;28;20035;-62
2023/10/18 13:06:15;;;;;;;11.70;8.93;;;15.90;59.50;;;;;;5085773;28;20064;-62
2023/10/18 13:08:55;;;;;;;15.38;9.13;;;16.00;59.10;;;;;;5089989;28;20115;-63
2023/10/18 13:16:56;;;;;;;9.70;7.70;;;16.20;57.70;;;;;;5089914;28;20043;-62
2023/10/18 13:19:23;;;;;;;10.43;8.77;;;16.20;57.90;;;;;;5087407;28;20038;-62
2023/10/18 13:21:50;;;;;;;15.77;8.95;;;16.10;57.60;;;;;;5093550;28;20478;-61
2023/10/18 13:26:53;;;;;;;10.55;8.68;;;16.10;57.60;;;;;;5083184;28;20039;-62
2023/10/18 13:31:45;;;;;;;9.85;8.32;;;15.90;57.50;;;;;;5090115;28;20454;-62
2023/10/18 13:34:20;;;;;;;10.60;8.35;;;15.90;57.50;;;;;;5088014;28;20152;-61
2023/10/18 13:36:54;;;;;;;10.93;8.25;;;15.80;57.60;;;;;;5085675;28;20059;-62
2023/10/18 13:39:23;;;;;;;9.98;8.90;;;15.70;57.30;;;;;;5088421;28;20043;-62
2023/10/18 13:41:52;;;;;;;10.65;8.75;;;15.60;57.60;;;;;;5086673;28;20039;-62
2023/10/18 13:44:19;;;;;;;10.75;8.65;;;15.50;57.90;;;;;;5087380;28;20028;-62
2023/10/18 13:46:47;;;;;;;9.70;7.70;;;15.50;58.00;;;;;;5086404;28;20038;-61
2023/10/18 13:49:17;;;;;;;11.40;8.13;;;15.40;58.20;;;;;;5090810;28;20107;-63
2023/10/18 13:51:43;;;;;;;10.48;7.75;;;15.30;58.30;;;;;;5088565;28;20099;-62
2023/10/18 13:54:09;;;;;;;13.10;9.32;;;15.20;58.30;;;;;;5069731;28;20501;-62
2023/10/18 13:56:35;;;;;;;11.75;8.82;;;15.20;58.50;;;;;;5086467;28;20028;-62
2023/10/18 13:59:04;;;;;;;15.05;9.98;;;15.10;58.50;;;;;;5087363;28;20390;-61
2023/10/18 14:01:31;;;;;;;21.77;9.07;;;15.10;58.60;;;;;;5089952;28;20020;-62
2023/10/18 14:03:59;;;;;;;10.73;8.52;;;15.00;58.80;;;;;;5091553;28;20020;-62
2023/10/18 14:06:25;;;;;;;11.52;9.07;;;14.90;58.90;;;;;;5086884;28;20028;-62
2023/10/18 14:08:51;;;;;;;12.38;8.45;;;14.90;59.00;;;;;;5090344;28;20024;-62